Sylvania, Arkansas
Current Conditions -  °F | °C
As of 11:58 AM on Thursday 23 Oct 2014 (Local Time) from KLRF Reporting Station
Clear Clear  
Wind Chill: 55°   Ceiling: Unl
Heat Index: 55°   Visibility: 10mi
Dew Point: 47°   Wind: 3mph
Humidity: 75%   Direction: 250°WSW
Pressure: 30.22"   Gusts: NA
Location:  34.9606°N, 91.8764°W
Report Text: KLRF 231658Z AUTO 25003KT 10SM CLR 13/09 A3022 RMK AO2 SLP237 T01290085
Loading
Personal Weather Stations






























Interactive Weather Map
Tropical Storm Tracking
New forecast layout! Learn more

10-Day Weather Forecast

Advertisements
Track Severe Weather on mobile